Time;durP1;ratioP1;P1;durP2;ratioP2;P2;SDS_P1;SDS_P2;PMS_P1;PMS_P2;Temp;Humidity;BMP_temperature;BMP_pressure;BME280_temperature;BME280_humidity;BME280_pressure;Samples;Min_cycle;Max_cycle;Signal;HPM_P1;HPM_P2
2023/08/01 00:00:08;;;;;;;4.20;1.65;;;;;;;;;;5003335;28;20182;-72
2023/08/01 00:02:33;;;;;;;5.10;2.05;;;;;;;;;;5007575;28;20557;-71
2023/08/01 00:04:58;;;;;;;3.22;1.77;;;;;;;;;;5004741;28;20213;-72
2023/08/01 00:07:25;;;;;;;4.47;1.88;;;;;;;;;;5002628;28;20187;-71
2023/08/01 00:09:50;;;;;;;5.57;2.17;;;;;;;;;;5006581;28;20252;-71
2023/08/01 00:12:15;;;;;;;2.85;2.33;;;;;;;;;;5006887;28;20656;-72
2023/08/01 00:14:40;;;;;;;3.92;2.55;;;;;;;;;;5017440;23;20230;-67
2023/08/01 00:17:06;;;;;;;5.47;2.92;;;;;;;;;;4966984;28;20309;-68
2023/08/01 00:19:31;;;;;;;8.02;2.35;;;;;;;;;;4949362;28;20602;-68
2023/08/01 00:21:56;;;;;;;5.30;2.63;;;;;;;;;;4950037;28;20566;-69
2023/08/01 00:24:21;;;;;;;7.72;3.17;;;;;;;;;;4966398;28;20285;-68
2023/08/01 00:26:47;;;;;;;5.70;2.97;;;;;;;;;;4957471;28;20222;-68
2023/08/01 00:29:12;;;;;;;7.72;3.95;;;;;;;;;;4938225;28;20444;-69
2023/08/01 00:31:38;;;;;;;9.20;3.60;;;;;;;;;;4957672;28;20865;-69
2023/08/01 00:34:03;;;;;;;8.50;3.78;;;;;;;;;;4956651;28;20184;-68
2023/08/01 00:36:28;;;;;;;6.75;4.15;;;;;;;;;;4954560;28;20204;-67
2023/08/01 00:38:53;;;;;;;5.10;3.10;;;;;;;;;;4956151;28;20208;-67
2023/08/01 00:41:18;;;;;;;9.57;3.28;;;;;;;;;;4955464;28;20526;-68
2023/08/01 00:43:44;;;;;;;5.88;3.08;;;;;;;;;;4953145;28;20184;-68
2023/08/01 00:46:09;;;;;;;4.80;2.80;;;;;;;;;;4938930;28;20581;-68
2023/08/01 00:48:35;;;;;;;11.23;3.22;;;;;;;;;;4958307;28;20801;-69
2023/08/01 00:51:03;;;;;;;6.93;4.00;;;;;;;;;;4940086;28;20737;-67
2023/08/01 00:53:28;;;;;;;6.28;2.75;;;;;;;;;;4957547;28;20287;-67
2023/08/01 00:55:54;;;;;;;11.27;3.35;;;;;;;;;;4958233;28;20211;-67
2023/08/01 00:58:19;;;;;;;8.98;3.72;;;;;;;;;;4955826;28;20219;-68
2023/08/01 01:00:45;;;;;;;7.95;2.85;;;;;;;;;;4954833;28;20571;-67
2023/08/01 01:03:10;;;;;;;9.48;3.53;;;;;;;;;;4956211;28;20647;-68
2023/08/01 01:05:36;;;;;;;7.47;2.80;;;;;;;;;;4935438;28;20211;-67
2023/08/01 01:08:03;;;;;;;10.60;2.95;;;;;;;;;;4957664;28;20196;-67
2023/08/01 01:10:28;;;;;;;10.18;3.53;;;;;;;;;;4938785;28;20991;-68
2023/08/01 01:12:53;;;;;;;8.95;3.88;;;;;;;;;;4941129;28;20192;-68
2023/08/01 01:15:18;;;;;;;7.68;3.83;;;;;;;;;;4940516;28;20227;-69
2023/08/01 01:17:44;;;;;;;8.18;3.90;;;;;;;;;;4941136;28;20212;-69
2023/08/01 01:20:09;;;;;;;10.50;4.20;;;;;;;;;;4958554;28;20184;-68
2023/08/01 01:22:35;;;;;;;7.03;3.90;;;;;;;;;;4958681;28;20203;-69
2023/08/01 01:25:02;;;;;;;7.65;3.13;;;;;;;;;;4958101;28;20295;-69
2023/08/01 01:27:27;;;;;;;7.82;3.20;;;;;;;;;;4956862;28;20180;-69
2023/08/01 01:29:53;;;;;;;8.13;3.10;;;;;;;;;;4957401;28;20210;-69
2023/08/01 01:32:19;;;;;;;7.38;3.65;;;;;;;;;;4932416;28;20192;-68
2023/08/01 01:34:45;;;;;;;9.98;4.07;;;;;;;;;;4952960;28;20204;-69
2023/08/01 01:37:10;;;;;;;11.82;3.28;;;;;;;;;;4955217;28;20188;-69
2023/08/01 01:39:35;;;;;;;6.75;3.90;;;;;;;;;;4957896;28;20299;-69
2023/08/01 01:42:01;;;;;;;10.80;3.22;;;;;;;;;;4954429;28;20219;-68
2023/08/01 01:44:26;;;;;;;10.35;3.80;;;;;;;;;;4956712;28;20549;-69
2023/08/01 01:46:51;;;;;;;10.25;3.53;;;;;;;;;;4951802;28;20176;-68
2023/08/01 01:49:17;;;;;;;10.75;3.50;;;;;;;;;;4955872;28;20195;-69
2023/08/01 01:51:42;;;;;;;16.00;3.78;;;;;;;;;;4955591;28;20266;-69
2023/08/01 01:54:07;;;;;;;8.63;4.47;;;;;;;;;;4956422;28;20184;-69
2023/08/01 01:56:33;;;;;;;8.60;4.50;;;;;;;;;;4956403;28;20231;-68
2023/08/01 01:58:58;;;;;;;8.55;3.95;;;;;;;;;;4954661;28;20278;-69
2023/08/01 02:01:24;;;;;;;13.00;4.90;;;;;;;;;;4951886;28;20196;-68
2023/08/01 02:03:49;;;;;;;9.73;4.53;;;;;;;;;;4951559;28;20181;-69
2023/08/01 02:06:14;;;;;;;15.38;4.07;;;;;;;;;;4940385;28;20306;-69
2023/08/01 02:08:39;;;;;;;14.10;4.57;;;;;;;;;;4954680;28;20188;-69
2023/08/01 02:11:05;;;;;;;10.27;4.00;;;;;;;;;;4952492;28;20207;-69
2023/08/01 02:13:31;;;;;;;8.65;4.07;;;;;;;;;;4955041;28;20467;-70
2023/08/01 02:15:56;;;;;;;11.55;4.50;;;;;;;;;;4960527;28;20369;-69
2023/08/01 02:18:21;;;;;;;9.00;3.90;;;;;;;;;;4941798;28;20216;-68
2023/08/01 02:20:46;;;;;;;7.05;3.85;;;;;;;;;;4961121;28;20187;-68
2023/08/01 02:23:12;;;;;;;13.43;3.20;;;;;;;;;;4959686;28;20238;-67
2023/08/01 02:25:40;;;;;;;9.10;3.80;;;;;;;;;;4943857;28;20204;-67
2023/08/01 02:28:06;;;;;;;8.18;3.40;;;;;;;;;;4956361;28;20184;-67
2023/08/01 02:30:31;;;;;;;8.55;3.15;;;;;;;;;;4958700;28;20192;-68
2023/08/01 02:32:56;;;;;;;10.63;3.65;;;;;;;;;;4939674;28;20230;-68
2023/08/01 02:35:21;;;;;;;11.95;4.32;;;;;;;;;;4960577;28;20321;-68
2023/08/01 02:37:46;;;;;;;10.70;3.78;;;;;;;;;;4954960;28;20212;-68
2023/08/01 02:40:12;;;;;;;14.50;3.83;;;;;;;;;;4942000;28;20577;-68
2023/08/01 02:42:37;;;;;;;17.23;4.57;;;;;;;;;;4960640;28;20193;-68
2023/08/01 02:45:02;;;;;;;8.68;3.80;;;;;;;;;;4960266;28;20203;-67
2023/08/01 02:47:28;;;;;;;13.60;4.32;;;;;;;;;;4942897;28;20184;-68
2023/08/01 02:49:53;;;;;;;9.05;4.30;;;;;;;;;;4961609;28;20184;-70
2023/08/01 02:52:19;;;;;;;10.93;4.13;;;;;;;;;;4960837;28;20300;-68
2023/08/01 02:54:44;;;;;;;9.05;3.45;;;;;;;;;;4960202;28;20505;-68
2023/08/01 02:57:09;;;;;;;12.13;3.88;;;;;;;;;;4956754;28;20188;-67
2023/08/01 02:59:34;;;;;;;8.05;3.33;;;;;;;;;;4959017;28;20227;-68
2023/08/01 03:02:00;;;;;;;10.35;3.40;;;;;;;;;;4958317;28;20181;-68
2023/08/01 03:04:25;;;;;;;10.10;4.85;;;;;;;;;;4953812;28;20914;-68
2023/08/01 03:06:50;;;;;;;10.13;4.63;;;;;;;;;;4959373;28;20191;-69
2023/08/01 03:09:15;;;;;;;10.57;3.85;;;;;;;;;;4959368;28;20678;-68
2023/08/01 03:11:41;;;;;;;9.60;3.33;;;;;;;;;;4938853;28;20634;-68
2023/08/01 03:14:06;;;;;;;9.65;4.13;;;;;;;;;;4959361;28;20188;-68
2023/08/01 03:16:31;;;;;;;6.88;3.63;;;;;;;;;;4957504;28;20227;-68
2023/08/01 03:18:57;;;;;;;9.77;3.95;;;;;;;;;;4957216;28;21789;-68
2023/08/01 03:21:22;;;;;;;10.10;3.72;;;;;;;;;;4959022;28;20235;-68
2023/08/01 03:23:47;;;;;;;11.65;4.57;;;;;;;;;;4954088;28;20193;-69
2023/08/01 03:26:13;;;;;;;10.20;4.35;;;;;;;;;;4941568;28;21369;-68
2023/08/01 03:28:38;;;;;;;12.10;4.10;;;;;;;;;;4958894;28;20189;-68
2023/08/01 03:31:03;;;;;;;10.18;3.72;;;;;;;;;;4940925;28;20662;-68
2023/08/01 03:33:29;;;;;;;15.60;4.03;;;;;;;;;;4958776;28;20221;-69
2023/08/01 03:35:54;;;;;;;13.45;3.85;;;;;;;;;;4959488;28;20270;-68
2023/08/01 03:38:19;;;;;;;6.60;3.85;;;;;;;;;;4958343;28;20224;-69
2023/08/01 03:40:44;;;;;;;9.80;3.85;;;;;;;;;;4955149;28;20705;-68
2023/08/01 03:43:10;;;;;;;7.90;3.42;;;;;;;;;;4942065;28;20275;-68
2023/08/01 03:45:35;;;;;;;8.85;3.78;;;;;;;;;;4958378;28;20282;-68
2023/08/01 03:48:01;;;;;;;8.43;4.22;;;;;;;;;;4941342;28;20191;-69
2023/08/01 03:50:26;;;;;;;8.20;4.25;;;;;;;;;;4959520;28;20688;-68
2023/08/01 03:52:51;;;;;;;11.30;4.85;;;;;;;;;;4941359;28;20184;-67
2023/08/01 03:55:16;;;;;;;7.85;3.88;;;;;;;;;;4942011;28;20224;-68
2023/08/01 03:57:42;;;;;;;9.75;3.92;;;;;;;;;;4956202;28;20195;-68
2023/08/01 04:00:13;;;;;;;12.02;4.32;;;;;;;;;;4959785;28;20578;-68
2023/08/01 04:02:39;;;;;;;13.40;4.55;;;;;;;;;;4959039;28;20199;-67
2023/08/01 04:05:04;;;;;;;8.80;4.05;;;;;;;;;;4958251;28;20532;-69
2023/08/01 04:07:29;;;;;;;11.02;4.38;;;;;;;;;;4960316;28;20267;-68
2023/08/01 04:09:55;;;;;;;13.15;4.88;;;;;;;;;;4956193;28;21153;-67
2023/08/01 04:12:20;;;;;;;12.90;4.78;;;;;;;;;;4940432;28;20727;-68
2023/08/01 04:14:45;;;;;;;19.50;6.03;;;;;;;;;;4957143;28;20619;-70
2023/08/01 04:17:10;;;;;;;15.63;4.60;;;;;;;;;;4942063;28;20189;-68
2023/08/01 04:19:36;;;;;;;14.30;5.32;;;;;;;;;;4957664;28;20242;-69
2023/08/01 04:22:01;;;;;;;9.63;4.75;;;;;;;;;;4941915;28;20184;-68
2023/08/01 04:24:27;;;;;;;11.35;4.57;;;;;;;;;;4955708;28;20856;-68
2023/08/01 04:26:53;;;;;;;12.23;4.20;;;;;;;;;;4954893;28;20870;-69
2023/08/01 04:29:19;;;;;;;17.02;4.10;;;;;;;;;;4957106;28;20678;-68
2023/08/01 04:31:44;;;;;;;16.80;4.57;;;;;;;;;;4941013;28;20287;-69
2023/08/01 04:34:09;;;;;;;13.80;4.97;;;;;;;;;;4939875;28;20191;-69
2023/08/01 04:36:35;;;;;;;12.35;4.78;;;;;;;;;;4957524;28;20204;-67
2023/08/01 04:39:00;;;;;;;12.15;4.20;;;;;;;;;;4939070;28;20236;-69
2023/08/01 04:41:25;;;;;;;10.13;5.30;;;;;;;;;;4954364;28;20195;-69
2023/08/01 04:43:50;;;;;;;11.43;4.22;;;;;;;;;;4939072;28;20513;-69
2023/08/01 04:46:15;;;;;;;11.75;4.53;;;;;;;;;;4958092;28;20212;-69
2023/08/01 04:48:41;;;;;;;11.77;3.80;;;;;;;;;;4954846;28;20192;-67
2023/08/01 04:51:06;;;;;;;12.82;4.57;;;;;;;;;;4958795;28;20703;-68
2023/08/01 04:53:31;;;;;;;14.05;4.55;;;;;;;;;;4956095;28;20192;-68
2023/08/01 04:55:56;;;;;;;10.77;3.60;;;;;;;;;;4941623;28;20670;-69
2023/08/01 04:58:22;;;;;;;9.68;4.05;;;;;;;;;;4954666;28;20267;-67
2023/08/01 05:00:47;;;;;;;13.70;5.15;;;;;;;;;;4939346;28;20262;-68
2023/08/01 05:03:12;;;;;;;16.92;4.88;;;;;;;;;;4957027;28;20184;-68
2023/08/01 05:05:37;;;;;;;16.60;4.22;;;;;;;;;;4955324;28;20709;-68
2023/08/01 05:08:03;;;;;;;20.00;3.90;;;;;;;;;;4957087;28;20219;-67
2023/08/01 05:10:28;;;;;;;12.23;3.45;;;;;;;;;;4957984;28;20200;-68
2023/08/01 05:12:53;;;;;;;8.10;3.63;;;;;;;;;;4955652;28;20192;-67
2023/08/01 05:15:18;;;;;;;11.90;3.25;;;;;;;;;;4953459;28;20255;-69
2023/08/01 05:17:44;;;;;;;12.00;3.33;;;;;;;;;;4954682;28;20692;-68
2023/08/01 05:20:09;;;;;;;9.75;3.72;;;;;;;;;;4956489;28;20188;-68
2023/08/01 05:22:34;;;;;;;10.43;3.70;;;;;;;;;;4938707;28;20185;-68
2023/08/01 05:25:00;;;;;;;14.10;4.13;;;;;;;;;;4955873;28;20725;-67
2023/08/01 05:27:25;;;;;;;9.52;3.28;;;;;;;;;;4948841;28;20280;-67
2023/08/01 05:29:50;;;;;;;10.60;3.58;;;;;;;;;;4954481;28;20196;-68
2023/08/01 05:32:15;;;;;;;7.18;3.10;;;;;;;;;;4939693;28;20189;-69
2023/08/01 05:34:40;;;;;;;9.48;3.72;;;;;;;;;;4957429;28;20275;-68
2023/08/01 05:37:06;;;;;;;13.52;3.63;;;;;;;;;;4955904;28;20220;-68
2023/08/01 05:39:31;;;;;;;13.50;3.88;;;;;;;;;;4938152;28;20224;-68
2023/08/01 05:41:56;;;;;;;8.68;2.92;;;;;;;;;;4954815;28;20302;-67
2023/08/01 05:44:21;;;;;;;8.50;2.88;;;;;;;;;;4955814;28;20197;-69
2023/08/01 05:46:47;;;;;;;11.85;3.20;;;;;;;;;;4935595;28;21040;-68
2023/08/01 05:49:12;;;;;;;7.43;2.63;;;;;;;;;;4957431;28;20195;-69
2023/08/01 05:51:37;;;;;;;9.02;3.72;;;;;;;;;;4960440;28;20905;-69
2023/08/01 05:54:02;;;;;;;10.55;2.90;;;;;;;;;;4944453;28;20199;-68
2023/08/01 05:56:27;;;;;;;4.65;2.63;;;;;;;;;;4961690;28;20699;-69
2023/08/01 05:58:53;;;;;;;7.15;3.05;;;;;;;;;;4955268;28;20295;-69
2023/08/01 06:01:19;;;;;;;8.30;3.30;;;;;;;;;;4944883;28;20185;-69
2023/08/01 06:03:44;;;;;;;6.45;2.40;;;;;;;;;;4940358;28;20184;-69
2023/08/01 06:06:10;;;;;;;7.97;2.80;;;;;;;;;;4942902;28;21137;-69
2023/08/01 06:08:35;;;;;;;9.35;2.95;;;;;;;;;;4959047;28;20897;-68
2023/08/01 06:11:00;;;;;;;8.25;2.33;;;;;;;;;;4958701;28;20258;-68
2023/08/01 06:13:25;;;;;;;8.68;3.00;;;;;;;;;;4960598;28;20200;-68
2023/08/01 06:15:50;;;;;;;7.30;2.42;;;;;;;;;;4989548;22;20235;-72
2023/08/01 06:18:16;;;;;;;12.25;3.05;;;;;;;;;;5009955;28;20676;-72
2023/08/01 06:20:41;;;;;;;6.40;2.22;;;;;;;;;;5002720;28;20600;-72
2023/08/01 06:23:06;;;;;;;4.88;2.58;;;;;;;;;;5008530;28;20186;-72
2023/08/01 06:25:31;;;;;;;8.27;2.97;;;;;;;;;;5004840;28;20203;-72
2023/08/01 06:27:57;;;;;;;5.47;2.42;;;;;;;;;;4999446;28;20190;-72
2023/08/01 06:30:22;;;;;;;10.05;3.10;;;;;;;;;;4997550;28;20183;-72
2023/08/01 06:32:47;;;;;;;5.03;2.92;;;;;;;;;;4996968;28;20496;-72
2023/08/01 06:35:12;;;;;;;6.32;2.90;;;;;;;;;;4990932;28;20187;-72
2023/08/01 06:37:38;;;;;;;7.75;2.92;;;;;;;;;;4987742;28;20962;-72
2023/08/01 06:40:04;;;;;;;9.35;3.38;;;;;;;;;;4977968;28;20446;-72
2023/08/01 06:42:29;;;;;;;9.68;3.08;;;;;;;;;;4996831;28;20309;-71
2023/08/01 06:44:54;;;;;;;10.40;3.95;;;;;;;;;;4995022;28;20854;-71
2023/08/01 06:47:19;;;;;;;5.85;2.55;;;;;;;;;;4999627;28;20203;-72
2023/08/01 06:49:45;;;;;;;5.07;2.03;;;;;;;;;;4991143;28;20265;-72
2023/08/01 06:52:10;;;;;;;5.85;2.28;;;;;;;;;;4990155;28;20179;-71
2023/08/01 06:54:35;;;;;;;14.85;3.90;;;;;;;;;;4998533;28;20885;-72
2023/08/01 06:57:00;;;;;;;3.85;2.25;;;;;;;;;;4998856;28;20827;-72
2023/08/01 06:59:26;;;;;;;7.35;2.30;;;;;;;;;;4996100;28;20214;-70
2023/08/01 07:01:51;;;;;;;9.27;2.65;;;;;;;;;;4993192;28;20183;-73
2023/08/01 07:04:16;;;;;;;7.43;2.58;;;;;;;;;;4985625;28;20248;-71
2023/08/01 07:06:42;;;;;;;5.55;2.60;;;;;;;;;;4989372;28;20211;-72
2023/08/01 07:09:07;;;;;;;7.30;2.65;;;;;;;;;;4996049;28;20274;-72
2023/08/01 07:11:32;;;;;;;11.30;3.03;;;;;;;;;;4998336;28;20556;-72
2023/08/01 07:13:57;;;;;;;8.10;2.85;;;;;;;;;;4994942;28;20572;-72
2023/08/01 07:16:23;;;;;;;8.98;2.60;;;;;;;;;;4998135;28;20227;-71
2023/08/01 07:18:48;;;;;;;4.82;2.10;;;;;;;;;;4998078;28;20206;-72
2023/08/01 07:21:13;;;;;;;5.82;2.50;;;;;;;;;;4997322;28;20799;-72
2023/08/01 07:23:39;;;;;;;6.85;3.30;;;;;;;;;;4995366;28;20195;-71
2023/08/01 07:26:04;;;;;;;6.35;2.97;;;;;;;;;;4994256;28;20739;-72
2023/08/01 07:28:29;;;;;;;7.07;2.45;;;;;;;;;;4990177;28;20187;-71
2023/08/01 07:31:01;;;;;;;4.32;2.40;;;;;;;;;;4998814;28;20213;-71
2023/08/01 07:33:26;;;;;;;6.50;2.47;;;;;;;;;;4999097;28;20672;-72
2023/08/01 07:35:51;;;;;;;13.48;3.90;;;;;;;;;;4997620;28;20214;-72
2023/08/01 07:38:17;;;;;;;9.18;3.60;;;;;;;;;;4994107;28;20206;-72
2023/08/01 07:40:42;;;;;;;4.40;2.15;;;;;;;;;;4993744;28;20186;-71
2023/08/01 07:43:07;;;;;;;5.07;2.35;;;;;;;;;;4994759;28;20187;-71
2023/08/01 07:45:34;;;;;;;7.60;2.22;;;;;;;;;;4997253;28;20225;-71
2023/08/01 07:47:59;;;;;;;6.80;2.00;;;;;;;;;;4997401;28;20191;-71
2023/08/01 07:50:25;;;;;;;5.85;2.25;;;;;;;;;;4996903;28;20191;-71
2023/08/01 07:52:50;;;;;;;5.45;2.13;;;;;;;;;;4997298;28;20222;-71
2023/08/01 07:55:16;;;;;;;6.15;2.15;;;;;;;;;;4995367;28;20207;-71
2023/08/01 07:57:42;;;;;;;6.70;1.80;;;;;;;;;;4996228;28;20268;-71
2023/08/01 08:00:07;;;;;;;8.30;2.22;;;;;;;;;;4999456;28;20281;-71
2023/08/01 08:02:32;;;;;;;5.80;2.63;;;;;;;;;;4993051;28;20277;-71
2023/08/01 08:04:58;;;;;;;5.28;1.92;;;;;;;;;;4996562;28;20190;-71
2023/08/01 08:07:23;;;;;;;8.55;1.80;;;;;;;;;;4995747;28;20182;-71
2023/08/01 08:09:48;;;;;;;7.43;1.60;;;;;;;;;;4998513;28;20190;-70
2023/08/01 08:12:13;;;;;;;7.00;1.80;;;;;;;;;;4998051;28;20262;-70
2023/08/01 08:14:38;;;;;;;7.93;1.98;;;;;;;;;;4998909;28;20253;-70
2023/08/01 08:17:04;;;;;;;7.55;1.95;;;;;;;;;;4998949;28;20249;-70
2023/08/01 08:19:29;;;;;;;6.70;2.15;;;;;;;;;;4992163;28;20411;-70
2023/08/01 08:21:54;;;;;;;3.50;1.60;;;;;;;;;;4995927;28;20665;-69
2023/08/01 08:24:19;;;;;;;5.03;1.73;;;;;;;;;;4996377;28;20270;-70
2023/08/01 08:26:45;;;;;;;5.73;1.43;;;;;;;;;;4995795;28;20463;-69
2023/08/01 08:29:10;;;;;;;4.88;1.80;;;;;;;;;;4997897;28;20815;-70
2023/08/01 08:31:36;;;;;;;5.60;2.40;;;;;;;;;;4985910;28;20335;-70
2023/08/01 08:34:01;;;;;;;4.00;1.40;;;;;;;;;;4998626;28;20179;-69
2023/08/01 08:36:26;;;;;;;4.28;1.67;;;;;;;;;;4998149;28;20206;-68
2023/08/01 08:38:51;;;;;;;2.47;1.23;;;;;;;;;;4998832;28;20302;-69
2023/08/01 08:41:20;;;;;;;6.30;1.70;;;;;;;;;;4998116;28;20308;-69
2023/08/01 08:43:47;;;;;;;2.78;1.42;;;;;;;;;;4999231;28;20179;-70
2023/08/01 08:46:15;;;;;;;4.25;1.50;;;;;;;;;;4996904;28;20198;-69
2023/08/01 08:48:41;;;;;;;6.30;1.65;;;;;;;;;;4998852;28;20270;-70
2023/08/01 08:51:06;;;;;;;3.33;1.65;;;;;;;;;;4990218;28;20572;-70
2023/08/01 08:53:34;;;;;;;4.05;1.67;;;;;;;;;;4997481;28;20194;-68
2023/08/01 08:56:00;;;;;;;5.57;1.80;;;;;;;;;;4995840;28;20214;-70
2023/08/01 08:58:25;;;;;;;4.30;1.60;;;;;;;;;;4996559;28;20222;-69
2023/08/01 09:00:51;;;;;;;2.60;1.38;;;;;;;;;;4995206;28;21131;-71
2023/08/01 09:03:16;;;;;;;3.92;1.52;;;;;;;;;;4996131;28;20253;-71
2023/08/01 09:05:48;;;;;;;1.38;1.00;;;;;;;;;;4993455;28;20202;-70
2023/08/01 09:08:19;;;;;;;3.45;1.20;;;;;;;;;;4994290;28;20276;-69
2023/08/01 09:10:45;;;;;;;1.60;1.10;;;;;;;;;;4987750;28;20201;-69
2023/08/01 09:13:10;;;;;;;5.63;2.20;;;;;;;;;;4992866;28;20468;-70
2023/08/01 09:15:35;;;;;;;5.43;1.92;;;;;;;;;;4991460;28;20394;-69
2023/08/01 09:18:00;;;;;;;3.90;1.85;;;;;;;;;;4975511;28;20206;-70
2023/08/01 09:20:29;;;;;;;6.70;1.73;;;;;;;;;;4976215;28;20230;-69
2023/08/01 09:22:57;;;;;;;6.22;1.70;;;;;;;;;;4972354;28;20187;-68
2023/08/01 09:25:30;;;;;;;4.53;1.65;;;;;;;;;;4976092;28;20965;-69
2023/08/01 09:27:56;;;;;;;3.75;1.73;;;;;;;;;;4975508;28;20234;-68
2023/08/01 09:30:21;;;;;;;8.68;1.55;;;;;;;;;;4975111;28;20179;-72
2023/08/01 09:32:53;;;;;;;3.22;1.40;;;;;;;;;;4971164;28;20267;-69
2023/08/01 09:35:19;;;;;;;5.05;1.50;;;;;;;;;;4973192;28;20202;-68
2023/08/01 09:37:44;;;;;;;3.80;1.77;;;;;;;;;;4973909;28;20649;-69
2023/08/01 09:40:09;;;;;;;3.17;1.23;;;;;;;;;;4972728;28;21069;-70
2023/08/01 09:42:41;;;;;;;3.33;1.20;;;;;;;;;;4974103;28;20668;-68
2023/08/01 09:45:16;;;;;;;5.65;1.30;;;;;;;;;;4992275;28;20766;-69
2023/08/01 09:47:42;;;;;;;7.10;1.73;;;;;;;;;;4974913;28;21014;-69
2023/08/01 09:50:08;;;;;;;2.55;1.70;;;;;;;;;;4975539;28;21018;-68
2023/08/01 09:52:34;;;;;;;4.45;1.60;;;;;;;;;;4972520;28;20281;-69
2023/08/01 09:54:59;;;;;;;7.25;1.25;;;;;;;;;;4974676;28;20292;-70
2023/08/01 09:57:28;;;;;;;3.28;1.05;;;;;;;;;;4975423;28;20573;-69
2023/08/01 09:59:55;;;;;;;3.38;1.50;;;;;;;;;;4974208;28;20712;-68
2023/08/01 10:02:23;;;;;;;2.95;1.30;;;;;;;;;;4973600;28;20764;-68
2023/08/01 10:04:49;;;;;;;9.93;2.65;;;;;;;;;;4972404;28;20187;-69
2023/08/01 10:07:17;;;;;;;7.53;1.15;;;;;;;;;;4982990;28;20747;-70
2023/08/01 10:09:42;;;;;;;4.47;1.10;;;;;;;;;;4987346;28;20573;-69
2023/08/01 10:12:09;;;;;;;2.33;1.30;;;;;;;;;;4992895;28;20233;-68
2023/08/01 10:14:35;;;;;;;2.55;1.70;;;;;;;;;;4994884;28;20191;-69
2023/08/01 10:17:01;;;;;;;2.85;1.13;;;;;;;;;;4995687;28;20981;-70
2023/08/01 10:19:27;;;;;;;5.45;1.42;;;;;;;;;;4994615;28;20215;-68
2023/08/01 10:21:53;;;;;;;5.10;1.48;;;;;;;;;;4992552;28;20191;-69
2023/08/01 10:24:19;;;;;;;5.30;1.30;;;;;;;;;;4994327;28;20592;-70
2023/08/01 10:26:45;;;;;;;2.80;1.20;;;;;;;;;;4994798;28;20203;-69
2023/08/01 10:29:10;;;;;;;5.32;1.10;;;;;;;;;;4995393;28;20198;-68
2023/08/01 10:31:35;;;;;;;6.83;1.83;;;;;;;;;;4996287;28;20187;-67
2023/08/01 10:34:05;;;;;;;6.80;2.47;;;;;;;;;;4997493;28;20506;-68
2023/08/01 10:36:31;;;;;;;2.92;1.40;;;;;;;;;;4996126;28;20333;-68
2023/08/01 10:38:58;;;;;;;2.97;1.38;;;;;;;;;;4997857;28;20307;-68
2023/08/01 10:41:27;;;;;;;5.40;1.40;;;;;;;;;;4995221;28;20250;-69
2023/08/01 10:44:04;;;;;;;3.88;2.00;;;;;;;;;;4978429;28;21119;-67
2023/08/01 10:46:29;;;;;;;4.15;1.73;;;;;;;;;;4977260;28;20211;-70
2023/08/01 10:48:54;;;;;;;6.85;1.70;;;;;;;;;;4976911;28;20187;-70
2023/08/01 10:51:19;;;;;;;4.40;1.83;;;;;;;;;;4977132;28;20201;-70
2023/08/01 10:53:45;;;;;;;7.13;1.85;;;;;;;;;;4977308;28;20872;-69
2023/08/01 10:56:18;;;;;;;5.97;1.67;;;;;;;;;;4976079;28;20257;-69
2023/08/01 10:58:43;;;;;;;5.35;1.60;;;;;;;;;;4976604;28;20312;-67
2023/08/01 11:01:08;;;;;;;3.47;1.35;;;;;;;;;;4981913;28;20180;-69
2023/08/01 11:03:34;;;;;;;3.97;1.38;;;;;;;;;;4977035;28;20183;-69
2023/08/01 11:06:00;;;;;;;4.50;1.48;;;;;;;;;;4977158;28;20222;-69
2023/08/01 11:08:33;;;;;;;5.55;1.90;;;;;;;;;;4978293;28;20955;-69
2023/08/01 11:10:58;;;;;;;2.63;1.10;;;;;;;;;;4977174;28;20216;-69
2023/08/01 11:13:24;;;;;;;4.18;1.13;;;;;;;;;;4980536;28;20948;-71
2023/08/01 11:15:49;;;;;;;4.37;1.50;;;;;;;;;;4997780;28;20222;-70
2023/08/01 11:18:14;;;;;;;7.80;1.95;;;;;;;;;;5000468;28;20595;-70
2023/08/01 11:20:41;;;;;;;4.88;1.30;;;;;;;;;;5000005;28;20261;-68
2023/08/01 11:23:06;;;;;;;2.95;1.75;;;;;;;;;;4978160;28;21959;-67
2023/08/01 11:25:39;;;;;;;4.03;1.60;;;;;;;;;;4977225;28;20253;-69
2023/08/01 11:28:08;;;;;;;3.53;2.03;;;;;;;;;;4976848;28;20233;-69
2023/08/01 11:30:33;;;;;;;6.75;1.75;;;;;;;;;;4976733;28;20191;-69
2023/08/01 11:32:58;;;;;;;7.25;1.85;;;;;;;;;;4977070;28;20188;-69
2023/08/01 11:35:24;;;;;;;4.53;1.65;;;;;;;;;;4976371;28;20199;-68
2023/08/01 11:37:50;;;;;;;3.28;1.17;;;;;;;;;;4978685;28;20627;-70
2023/08/01 11:40:15;;;;;;;3.63;1.48;;;;;;;;;;4975532;28;20207;-69
2023/08/01 11:42:41;;;;;;;4.18;1.50;;;;;;;;;;4976226;28;20241;-68
2023/08/01 11:45:10;;;;;;;4.20;1.70;;;;;;;;;;4974794;28;20253;-68
2023/08/01 11:47:36;;;;;;;3.97;1.50;;;;;;;;;;4976934;28;20247;-69
2023/08/01 11:50:01;;;;;;;8.57;2.28;;;;;;;;;;4976006;28;20835;-68
2023/08/01 11:52:27;;;;;;;7.28;1.77;;;;;;;;;;4975709;28;20188;-68
2023/08/01 11:54:54;;;;;;;5.93;1.65;;;;;;;;;;4973701;28;20286;-68
2023/08/01 11:57:21;;;;;;;8.25;1.83;;;;;;;;;;4978009;28;20394;-67
2023/08/01 11:59:51;;;;;;;4.30;1.58;;;;;;;;;;4979107;28;20211;-69
2023/08/01 12:02:23;;;;;;;6.05;1.83;;;;;;;;;;4980368;28;20618;-68
2023/08/01 12:04:48;;;;;;;5.90;1.52;;;;;;;;;;4975125;28;20199;-68
2023/08/01 12:07:14;;;;;;;6.85;2.25;;;;;;;;;;4973771;28;20203;-68
2023/08/01 12:09:40;;;;;;;6.30;1.98;;;;;;;;;;4973226;28;20275;-68
2023/08/01 12:12:05;;;;;;;2.47;1.17;;;;;;;;;;4977589;28;20192;-69
2023/08/01 12:14:30;;;;;;;5.82;1.70;;;;;;;;;;4979675;28;20242;-68
2023/08/01 12:16:55;;;;;;;3.05;1.30;;;;;;;;;;4988679;23;20239;-66
2023/08/01 12:19:21;;;;;;;2.17;1.25;;;;;;;;;;4970402;28;20722;-66
2023/08/01 12:21:46;;;;;;;2.83;1.00;;;;;;;;;;4953010;28;20203;-66
2023/08/01 12:24:12;;;;;;;1.52;0.77;;;;;;;;;;4953849;28;20191;-68
2023/08/01 12:26:37;;;;;;;3.13;1.10;;;;;;;;;;4961727;28;20199;-67
2023/08/01 12:29:02;;;;;;;4.45;1.30;;;;;;;;;;4955238;28;20739;-67
2023/08/01 12:31:28;;;;;;;4.28;1.10;;;;;;;;;;4955364;28;20552;-66
2023/08/01 12:33:53;;;;;;;3.72;1.50;;;;;;;;;;4956029;28;20183;-67
2023/08/01 12:36:19;;;;;;;3.10;1.25;;;;;;;;;;4937043;28;20211;-67
2023/08/01 12:38:44;;;;;;;6.57;1.35;;;;;;;;;;4956053;28;20295;-66
2023/08/01 12:41:09;;;;;;;2.88;1.50;;;;;;;;;;4953890;28;20186;-67
2023/08/01 12:43:34;;;;;;;5.07;1.50;;;;;;;;;;4953996;28;20188;-68
2023/08/01 12:46:00;;;;;;;6.72;1.90;;;;;;;;;;4958107;28;20802;-66
2023/08/01 12:48:26;;;;;;;4.43;1.13;;;;;;;;;;4954665;28;20188;-67
2023/08/01 12:50:51;;;;;;;5.22;1.45;;;;;;;;;;4955324;28;20274;-68
2023/08/01 12:53:16;;;;;;;5.43;1.23;;;;;;;;;;4958294;28;20196;-67
2023/08/01 12:55:45;;;;;;;6.43;1.67;;;;;;;;;;4954735;28;20211;-68
2023/08/01 12:58:11;;;;;;;7.03;1.27;;;;;;;;;;4942774;28;20245;-67
2023/08/01 13:00:36;;;;;;;5.85;1.17;;;;;;;;;;4970888;28;20223;-67
2023/08/01 13:03:01;;;;;;;4.65;1.63;;;;;;;;;;4957928;28;20183;-67
2023/08/01 13:05:27;;;;;;;5.55;1.73;;;;;;;;;;4958260;28;20318;-66
2023/08/01 13:07:52;;;;;;;3.95;1.83;;;;;;;;;;4941541;28;20280;-66
2023/08/01 13:10:17;;;;;;;2.75;1.50;;;;;;;;;;4957193;28;20202;-67
2023/08/01 13:12:43;;;;;;;3.65;1.05;;;;;;;;;;4960361;28;20278;-68
2023/08/01 13:15:08;;;;;;;4.97;1.33;;;;;;;;;;4940530;28;20213;-68
2023/08/01 13:17:34;;;;;;;3.97;1.17;;;;;;;;;;4958732;28;20461;-68
2023/08/01 13:19:59;;;;;;;3.08;1.00;;;;;;;;;;4957556;28;20219;-68
2023/08/01 13:22:24;;;;;;;7.15;1.50;;;;;;;;;;4955330;28;20245;-66
2023/08/01 13:24:49;;;;;;;3.90;0.90;;;;;;;;;;4955150;28;20283;-67
2023/08/01 13:27:14;;;;;;;2.47;0.82;;;;;;;;;;4935135;28;20262;-67
2023/08/01 13:29:40;;;;;;;7.30;1.07;;;;;;;;;;4956479;28;20874;-67
2023/08/01 13:32:06;;;;;;;8.27;1.67;;;;;;;;;;4937006;28;20474;-67
2023/08/01 13:34:31;;;;;;;3.67;1.23;;;;;;;;;;4951241;28;20199;-67
2023/08/01 13:36:57;;;;;;;4.43;1.40;;;;;;;;;;4956276;28;20569;-66
2023/08/01 13:39:22;;;;;;;4.78;0.98;;;;;;;;;;4955176;28;20270;-67
2023/08/01 13:41:47;;;;;;;4.18;1.42;;;;;;;;;;4934627;28;20184;-66
2023/08/01 13:44:12;;;;;;;3.88;1.10;;;;;;;;;;4958492;28;20194;-67
2023/08/01 13:46:37;;;;;;;1.77;0.98;;;;;;;;;;4969922;28;20209;-67
2023/08/01 13:49:03;;;;;;;3.47;1.20;;;;;;;;;;4961288;28;20270;-66
2023/08/01 13:51:31;;;;;;;7.47;1.47;;;;;;;;;;4942839;28;20286;-68
2023/08/01 13:53:58;;;;;;;3.72;1.38;;;;;;;;;;4942355;28;20472;-68
2023/08/01 13:56:24;;;;;;;4.13;1.75;;;;;;;;;;4960909;28;20587;-69
2023/08/01 13:58:50;;;;;;;3.47;1.33;;;;;;;;;;4960676;28;20949;-68
2023/08/01 14:01:15;;;;;;;3.00;1.00;;;;;;;;;;4964195;28;20252;-69
2023/08/01 14:03:40;;;;;;;2.47;1.00;;;;;;;;;;4976092;28;20184;-67
2023/08/01 14:06:10;;;;;;;3.80;1.40;;;;;;;;;;4956618;28;20291;-67
2023/08/01 14:08:35;;;;;;;6.13;1.48;;;;;;;;;;4938477;28;20222;-68
2023/08/01 14:11:04;;;;;;;2.33;0.90;;;;;;;;;;4941288;28;20828;-68
2023/08/01 14:13:29;;;;;;;4.90;1.67;;;;;;;;;;4963902;28;20269;-69
2023/08/01 14:15:54;;;;;;;4.80;1.42;;;;;;;;;;4963776;28;20211;-68
2023/08/01 14:18:20;;;;;;;5.15;1.40;;;;;;;;;;4960860;28;20918;-67
2023/08/01 14:20:45;;;;;;;8.65;1.58;;;;;;;;;;4938925;28;20780;-68
2023/08/01 14:23:10;;;;;;;6.32;1.20;;;;;;;;;;4957455;28;20195;-67
2023/08/01 14:25:36;;;;;;;3.83;0.90;;;;;;;;;;4958415;28;20187;-67
2023/08/01 14:28:01;;;;;;;3.60;1.15;;;;;;;;;;4960924;28;20275;-68
2023/08/01 14:30:27;;;;;;;1.80;1.02;;;;;;;;;;4956464;28;20188;-68